createdAt,value
2023-04-10T00:01:47.486Z,5.00
2023-04-10T00:04:45.844Z,5.25
2023-04-10T00:07:43.902Z,5.20
2023-04-10T00:10:42.127Z,4.47
2023-04-10T00:13:40.063Z,4.20
2023-04-10T00:16:38.119Z,4.45
2023-04-10T00:19:36.114Z,4.20
2023-04-10T00:22:34.054Z,3.92
2023-04-10T00:25:32.126Z,4.63
2023-04-10T00:28:30.005Z,4.10
2023-04-10T00:31:27.904Z,4.60
2023-04-10T00:34:26.434Z,3.83
2023-04-10T00:37:24.311Z,3.97
2023-04-10T00:40:22.694Z,4.55
2023-04-10T00:43:20.801Z,4.57
2023-04-10T00:46:18.803Z,4.15
2023-04-10T00:49:18.891Z,3.85
2023-04-10T00:52:17.219Z,3.92
2023-04-10T00:55:16.581Z,3.58
2023-04-10T00:58:15.167Z,4.00
2023-04-10T01:01:13.776Z,3.97
2023-04-10T01:04:12.322Z,4.30
2023-04-10T01:07:33.293Z,3.92
2023-04-10T01:10:44.076Z,4.22
2023-04-10T01:14:00.533Z,3.70
2023-04-10T01:17:04.375Z,4.30
2023-04-10T01:20:05.261Z,3.75
2023-04-10T01:23:17.375Z,3.67
2023-04-10T01:26:20.275Z,3.45
2023-04-10T01:29:22.450Z,3.90
2023-04-10T01:32:23.598Z,3.83
2023-04-10T01:35:22.446Z,4.40
2023-04-10T01:38:22.064Z,4.68
2023-04-10T01:41:20.657Z,3.58
2023-04-10T01:44:20.313Z,3.30
2023-04-10T01:47:19.145Z,3.67
2023-04-10T01:50:18.329Z,3.75
2023-04-10T01:53:17.512Z,3.85
2023-04-10T01:56:16.792Z,4.22
2023-04-10T01:59:14.645Z,3.58
2023-04-10T02:02:12.932Z,4.40
2023-04-10T02:05:14.412Z,3.80
2023-04-10T02:08:33.773Z,4.38
2023-04-10T02:11:39.412Z,4.32
2023-04-10T02:14:46.393Z,5.20
2023-04-10T02:17:44.799Z,5.07
2023-04-10T02:20:42.702Z,4.97
2023-04-10T02:23:40.984Z,4.97
2023-04-10T02:26:52.924Z,4.70
2023-04-10T02:29:52.164Z,5.35
2023-04-10T02:32:50.057Z,4.75
2023-04-10T02:35:48.225Z,5.22
2023-04-10T02:38:46.246Z,4.55
2023-04-10T02:41:44.106Z,4.85
2023-04-10T02:44:42.022Z,5.88
2023-04-10T02:47:40.191Z,5.30
2023-04-10T02:50:38.167Z,5.50
2023-04-10T02:53:36.259Z,5.65
2023-04-10T02:56:36.953Z,5.35
2023-04-10T02:59:34.859Z,5.25
2023-04-10T03:02:33.174Z,5.00
2023-04-10T03:05:31.805Z,5.63
2023-04-10T03:08:30.964Z,6.35
2023-04-10T03:11:28.825Z,4.95
2023-04-10T03:14:27.542Z,4.65
2023-04-10T03:17:25.542Z,4.80
2023-04-10T03:20:23.426Z,4.93
2023-04-10T03:23:21.429Z,4.88
2023-04-10T03:26:19.398Z,4.88
2023-04-10T03:29:19.705Z,5.18
2023-04-10T03:32:17.543Z,5.07
2023-04-10T03:35:15.431Z,5.30
2023-04-10T03:38:13.129Z,4.95
2023-04-10T03:41:11.049Z,5.07
2023-04-10T03:44:08.878Z,5.47
2023-04-10T03:47:06.819Z,4.75
2023-04-10T03:50:04.977Z,4.68
2023-04-10T03:53:03.063Z,5.38
2023-04-10T03:56:00.905Z,5.22
2023-04-10T03:58:58.880Z,5.40
2023-04-10T04:01:56.781Z,5.60
2023-04-10T04:04:54.811Z,5.40
2023-04-10T04:07:52.597Z,5.82
2023-04-10T04:10:50.785Z,5.80
2023-04-10T04:13:48.688Z,5.40
2023-04-10T04:16:46.941Z,6.50
2023-04-10T04:19:45.042Z,6.75
2023-04-10T04:22:43.165Z,11.38
2023-04-10T04:25:40.861Z,11.85
2023-04-10T04:28:39.051Z,14.27
2023-04-10T04:31:36.899Z,21.45
2023-04-10T04:34:34.885Z,23.95
2023-04-10T04:37:32.578Z,26.25
2023-04-10T04:40:30.460Z,28.95
2023-04-10T04:43:28.384Z,28.25
2023-04-10T04:46:26.395Z,28.83
2023-04-10T04:49:24.252Z,29.17
2023-04-10T04:52:22.057Z,35.10
2023-04-10T04:55:19.938Z,37.85
2023-04-10T04:58:17.819Z,37.22
2023-04-10T05:01:15.939Z,39.05
2023-04-10T05:04:13.949Z,37.40
2023-04-10T05:07:12.134Z,37.53
2023-04-10T05:10:10.451Z,37.97
2023-04-10T05:13:08.505Z,40.17
2023-04-10T05:16:06.827Z,39.42
2023-04-10T05:19:04.946Z,38.83
2023-04-10T05:22:03.040Z,38.70
2023-04-10T05:25:01.103Z,40.55
2023-04-10T05:27:58.956Z,38.00
2023-04-10T05:30:56.894Z,37.30
2023-04-10T05:33:54.649Z,35.58
2023-04-10T05:36:53.310Z,34.90
2023-04-10T05:39:51.049Z,35.88
2023-04-10T05:42:48.870Z,38.05
2023-04-10T05:45:46.556Z,38.78
2023-04-10T05:48:44.639Z,37.90
2023-04-10T05:51:42.366Z,38.10
2023-04-10T05:54:40.459Z,36.05
2023-04-10T05:57:39.929Z,36.42
2023-04-10T06:00:37.904Z,38.25
2023-04-10T06:03:36.124Z,36.85
2023-04-10T06:06:34.479Z,34.92
2023-04-10T06:09:32.299Z,36.88
2023-04-10T06:12:30.194Z,34.78
2023-04-10T06:15:28.260Z,38.55
2023-04-10T06:18:26.225Z,37.03
2023-04-10T06:21:24.067Z,37.78
2023-04-10T06:24:21.804Z,36.47
2023-04-10T06:27:19.697Z,36.92
2023-04-10T06:30:17.407Z,33.45
2023-04-10T06:33:15.356Z,37.40
2023-04-10T06:36:13.288Z,33.42
2023-04-10T06:39:11.045Z,36.10
2023-04-10T06:42:08.999Z,34.97
2023-04-10T06:45:07.372Z,36.92
2023-04-10T06:48:06.303Z,36.80
2023-04-10T06:51:04.507Z,36.67
2023-04-10T06:54:02.641Z,37.90
2023-04-10T06:57:01.315Z,35.97
2023-04-10T06:59:59.289Z,40.38
2023-04-10T07:02:57.274Z,36.55
2023-04-10T07:05:55.226Z,39.10
2023-04-10T07:08:53.334Z,38.42
2023-04-10T07:11:52.734Z,39.10
2023-04-10T07:14:50.719Z,40.53
2023-04-10T07:17:49.417Z,39.15
2023-04-10T07:20:47.693Z,37.03
2023-04-10T07:23:45.626Z,43.03
2023-04-10T07:26:43.924Z,38.38
2023-04-10T07:29:41.990Z,36.95
2023-04-10T07:32:40.949Z,35.53
2023-04-10T07:35:39.180Z,41.38
2023-04-10T07:38:38.370Z,42.83
2023-04-10T07:41:36.433Z,38.83
2023-04-10T07:44:34.353Z,39.75
2023-04-10T07:47:32.264Z,37.42
2023-04-10T07:50:31.331Z,37.47
2023-04-10T07:53:29.439Z,37.17
2023-04-10T07:56:27.264Z,32.00
2023-04-10T07:59:25.207Z,31.60
2023-04-10T08:02:26.205Z,29.17
2023-04-10T08:05:25.099Z,32.20
2023-04-10T08:08:23.110Z,32.08
2023-04-10T08:11:29.097Z,28.33
2023-04-10T08:14:27.205Z,30.75
2023-04-10T08:17:25.161Z,34.25
2023-04-10T08:20:22.999Z,34.97
2023-04-10T08:23:21.855Z,30.00
2023-04-10T08:26:20.323Z,36.40
2023-04-10T08:29:18.602Z,32.28
2023-04-10T08:32:16.723Z,30.42
2023-04-10T08:35:14.678Z,36.30
2023-04-10T08:38:14.519Z,33.03
2023-04-10T08:41:17.001Z,32.45
2023-04-10T08:44:15.009Z,33.08
2023-04-10T08:47:14.204Z,34.67
2023-04-10T08:50:16.726Z,30.90
2023-04-10T08:53:16.524Z,32.45
2023-04-10T08:56:16.942Z,30.30
2023-04-10T08:59:15.013Z,31.98
2023-04-10T09:02:13.311Z,28.73
2023-04-10T09:05:13.766Z,29.00
2023-04-10T09:08:12.792Z,27.92
2023-04-10T09:11:11.360Z,28.55
2023-04-10T09:14:22.738Z,28.15
2023-04-10T09:17:22.261Z,27.85
2023-04-10T09:20:25.172Z,27.17
2023-04-10T09:26:26.636Z,23.83
2023-04-10T09:29:25.026Z,23.77
2023-04-10T09:32:52.261Z,25.15
2023-04-10T09:35:51.146Z,21.45
2023-04-10T09:38:52.803Z,20.35
2023-04-10T09:41:52.932Z,24.27
2023-04-10T09:44:56.931Z,22.08
2023-04-10T09:48:04.781Z,21.45
2023-04-10T09:51:02.967Z,21.65
2023-04-10T09:54:01.973Z,18.77
2023-04-10T09:57:00.158Z,18.60
2023-04-10T09:59:59.731Z,21.15
2023-04-10T10:03:00.450Z,19.80
2023-04-10T10:05:58.534Z,20.63
2023-04-10T10:08:57.010Z,21.25
2023-04-10T10:11:56.322Z,21.17
2023-04-10T10:15:22.556Z,21.63
2023-04-10T10:18:52.508Z,21.67
2023-04-10T10:21:52.756Z,20.75
2023-04-10T10:24:57.167Z,20.35
2023-04-10T10:27:56.253Z,20.05
2023-04-10T10:30:55.338Z,19.90
2023-04-10T10:33:54.828Z,19.35
2023-04-10T10:36:52.560Z,19.63
2023-04-10T10:40:05.246Z,18.30
2023-04-10T10:43:24.558Z,17.45
2023-04-10T10:46:48.521Z,17.33
2023-04-10T10:49:59.458Z,18.25
2023-04-10T10:52:58.309Z,16.60
2023-04-10T10:55:56.393Z,17.20
2023-04-10T10:58:56.557Z,18.10
2023-04-10T11:02:18.716Z,18.17
2023-04-10T11:05:51.778Z,16.77
2023-04-10T11:08:53.947Z,17.52
2023-04-10T11:12:02.292Z,18.38
2023-04-10T11:15:06.847Z,16.45
2023-04-10T11:18:04.721Z,16.98
2023-04-10T11:21:13.449Z,17.38
2023-04-10T11:24:11.677Z,15.02
2023-04-10T11:27:09.446Z,13.73
2023-04-10T11:30:28.602Z,14.35
2023-04-10T11:33:26.407Z,16.92
2023-04-10T11:36:25.065Z,18.83
2023-04-10T11:39:23.096Z,17.67
2023-04-10T11:42:22.330Z,19.90
2023-04-10T11:45:29.702Z,22.05
2023-04-10T11:48:29.484Z,20.60
2023-04-10T11:51:30.621Z,21.75
2023-04-10T11:54:29.930Z,20.13
2023-04-10T11:57:35.867Z,20.00
2023-04-10T12:00:33.957Z,19.95
2023-04-10T12:03:40.058Z,20.15
2023-04-10T12:06:38.138Z,17.70
2023-04-10T12:09:36.191Z,16.58
2023-04-10T12:12:38.306Z,16.60
2023-04-10T12:15:36.288Z,17.83
2023-04-10T12:18:34.579Z,17.25
2023-04-10T12:21:32.653Z,16.17
2023-04-10T12:24:46.662Z,13.68
2023-04-10T12:27:51.046Z,13.70
2023-04-10T12:30:55.711Z,13.25
2023-04-10T12:33:58.054Z,15.40
2023-04-10T12:36:56.180Z,13.88
2023-04-10T12:39:54.368Z,15.40
2023-04-10T12:42:52.960Z,14.77
2023-04-10T12:45:50.782Z,15.38
2023-04-10T12:48:48.822Z,16.00
2023-04-10T12:51:53.885Z,15.10
2023-04-10T12:54:51.922Z,14.60
2023-04-10T12:57:52.360Z,14.43
2023-04-10T13:00:50.380Z,14.32
2023-04-10T13:03:49.587Z,14.77
2023-04-10T13:06:48.971Z,15.98
2023-04-10T13:09:47.282Z,14.82
2023-04-10T13:12:45.252Z,16.13
2023-04-10T13:15:43.528Z,13.35
2023-04-10T13:18:41.228Z,15.05
2023-04-10T13:21:39.066Z,15.88
2023-04-10T13:24:37.598Z,16.88
2023-04-10T13:27:35.517Z,15.27
2023-04-10T13:30:33.666Z,15.55
2023-04-10T13:33:31.885Z,15.55
2023-04-10T13:36:29.797Z,15.27
2023-04-10T13:39:31.729Z,14.40
2023-04-10T13:42:29.633Z,14.88
2023-04-10T13:45:27.719Z,15.32
2023-04-10T13:48:33.662Z,18.52
2023-04-10T13:51:37.604Z,19.63
2023-04-10T13:54:35.511Z,16.73
2023-04-10T13:57:33.394Z,16.98
2023-04-10T14:00:31.297Z,11.90
2023-04-10T14:03:29.553Z,18.95
2023-04-10T14:06:27.881Z,16.80
2023-04-10T14:09:25.959Z,15.00
2023-04-10T14:12:24.602Z,14.18
2023-04-10T14:15:23.328Z,14.68
2023-04-10T14:18:21.186Z,13.52
2023-04-10T14:21:20.671Z,12.10
2023-04-10T14:24:18.797Z,15.50
2023-04-10T14:27:17.596Z,14.68
2023-04-10T14:30:15.488Z,11.48
2023-04-10T14:33:13.999Z,12.18
2023-04-10T14:36:12.077Z,12.63
2023-04-10T14:39:10.041Z,12.63
2023-04-10T14:42:08.000Z,12.18
2023-04-10T14:45:06.862Z,12.40
2023-04-10T14:48:05.080Z,12.43
2023-04-10T14:51:03.195Z,11.88
2023-04-10T14:54:01.185Z,9.95
2023-04-10T14:56:59.138Z,10.43
2023-04-10T14:59:57.027Z,10.20
2023-04-10T15:02:55.006Z,10.95
2023-04-10T15:06:00.587Z,10.73
2023-04-10T15:08:58.478Z,9.90
2023-04-10T15:11:57.527Z,9.55
2023-04-10T15:14:55.308Z,9.10
2023-04-10T15:17:53.435Z,7.60
2023-04-10T15:20:51.300Z,7.00
2023-04-10T15:23:49.136Z,6.72
2023-04-10T15:26:47.646Z,6.22
2023-04-10T15:29:45.324Z,6.82
2023-04-10T15:32:43.216Z,6.20
2023-04-10T15:35:41.121Z,5.63
2023-04-10T15:38:40.121Z,4.97
2023-04-10T15:41:38.834Z,4.82
2023-04-10T15:44:36.909Z,4.05
2023-04-10T15:47:34.672Z,4.20
2023-04-10T15:50:32.748Z,4.13
2023-04-10T15:53:30.723Z,3.92
2023-04-10T15:56:28.669Z,3.55
2023-04-10T15:59:26.386Z,4.68
2023-04-10T16:02:24.505Z,3.92
2023-04-10T16:05:22.583Z,4.10
2023-04-10T16:08:20.649Z,3.63
2023-04-10T16:11:18.672Z,4.47
2023-04-10T16:14:16.773Z,4.75
2023-04-10T16:17:14.718Z,4.53
2023-04-10T16:20:13.254Z,5.43
2023-04-10T16:23:11.425Z,4.80
2023-04-10T16:26:09.351Z,6.15
2023-04-10T16:29:07.446Z,5.40
2023-04-10T16:32:05.332Z,5.53
2023-04-10T16:35:03.413Z,5.25
2023-04-10T16:38:01.287Z,6.00
2023-04-10T16:41:02.144Z,5.93
2023-04-10T16:44:00.273Z,6.72
2023-04-10T16:46:58.811Z,6.97
2023-04-10T16:49:57.149Z,7.93
2023-04-10T16:52:55.247Z,7.57
2023-04-10T16:56:01.924Z,8.02
2023-04-10T16:59:02.526Z,7.82
2023-04-10T17:02:00.970Z,7.45
2023-04-10T17:04:59.101Z,8.05
2023-04-10T17:07:56.773Z,8.60
2023-04-10T17:10:55.098Z,8.90
2023-04-10T17:13:52.919Z,12.18
2023-04-10T17:16:50.889Z,8.27
2023-04-10T17:19:49.032Z,7.75
2023-04-10T17:22:47.723Z,7.47
2023-04-10T17:25:45.627Z,6.90
2023-04-10T17:28:46.964Z,6.32
2023-04-10T17:31:44.907Z,5.50
2023-04-10T17:34:43.238Z,5.80
2023-04-10T17:37:41.328Z,5.03
2023-04-10T17:40:41.336Z,4.57
2023-04-10T17:43:39.460Z,4.30
2023-04-10T17:46:37.401Z,3.33
2023-04-10T17:49:35.668Z,3.40
2023-04-10T17:52:33.594Z,3.03
2023-04-10T17:55:31.630Z,3.20
2023-04-10T17:58:29.535Z,2.40
2023-04-10T18:01:30.339Z,2.33
2023-04-10T18:04:28.285Z,2.15
2023-04-10T18:07:26.052Z,1.80
2023-04-10T18:10:24.146Z,1.95
2023-04-10T18:13:21.901Z,1.90
2023-04-10T18:16:20.055Z,1.65
2023-04-10T18:19:18.284Z,1.67
2023-04-10T18:22:16.149Z,1.85
2023-04-10T18:25:14.501Z,1.83
2023-04-10T18:28:15.908Z,1.90
2023-04-10T18:31:19.525Z,1.52
2023-04-10T18:34:17.527Z,1.05
2023-04-10T18:37:15.306Z,1.80
2023-04-10T18:40:16.339Z,1.83
2023-04-10T18:43:14.801Z,1.48
2023-04-10T18:46:13.113Z,1.33
2023-04-10T18:49:11.833Z,1.67
2023-04-10T18:52:09.889Z,1.40
2023-04-10T18:55:08.049Z,1.60
2023-04-10T18:58:05.887Z,1.63
2023-04-10T19:01:03.945Z,1.83
2023-04-10T19:04:02.107Z,1.42
2023-04-10T19:07:00.467Z,1.60
2023-04-10T19:09:58.295Z,1.40
2023-04-10T19:12:57.345Z,1.55
2023-04-10T19:15:55.727Z,1.20
2023-04-10T19:18:56.846Z,1.40
2023-04-10T19:21:55.014Z,1.58
2023-04-10T19:24:52.914Z,1.30
2023-04-10T19:27:51.026Z,1.42
2023-04-10T19:30:48.813Z,1.92
2023-04-10T19:33:46.688Z,1.52
2023-04-10T19:36:44.403Z,1.90
2023-04-10T19:39:42.297Z,1.63
2023-04-10T19:42:40.105Z,2.08
2023-04-10T19:45:39.130Z,2.10
2023-04-10T19:48:37.070Z,1.98
2023-04-10T19:51:34.995Z,1.83
2023-04-10T19:54:32.954Z,1.63
2023-04-10T19:57:30.967Z,2.00
2023-04-10T20:00:28.935Z,2.10
2023-04-10T20:03:28.420Z,2.00
2023-04-10T20:06:27.546Z,1.90
2023-04-10T20:09:25.470Z,1.67
2023-04-10T20:12:23.326Z,1.73
2023-04-10T20:15:22.733Z,1.95
2023-04-10T20:18:20.484Z,2.30
2023-04-10T20:21:19.285Z,3.10
2023-04-10T20:24:16.975Z,3.50
2023-04-10T20:27:16.180Z,3.60
2023-04-10T20:30:14.486Z,3.78
2023-04-10T20:33:12.565Z,3.45
2023-04-10T20:36:10.709Z,3.67
2023-04-10T20:39:08.495Z,3.55
2023-04-10T20:42:07.415Z,4.20
2023-04-10T20:45:05.910Z,3.55
2023-04-10T20:48:03.848Z,3.50
2023-04-10T20:51:02.458Z,3.40
2023-04-10T20:54:00.464Z,3.78
2023-04-10T20:57:00.697Z,3.63
2023-04-10T20:59:58.508Z,4.10
2023-04-10T21:02:56.491Z,3.90
2023-04-10T21:05:54.315Z,4.10
2023-04-10T21:08:53.143Z,4.00
2023-04-10T21:11:51.165Z,3.78
2023-04-10T21:14:49.007Z,3.63
2023-04-10T21:17:46.856Z,3.80
2023-04-10T21:20:45.492Z,3.80
2023-04-10T21:23:43.344Z,3.65
2023-04-10T21:26:41.064Z,3.38
2023-04-10T21:29:39.054Z,3.45
2023-04-10T21:32:37.112Z,3.15
2023-04-10T21:35:35.055Z,3.67
2023-04-10T21:38:32.880Z,3.78
2023-04-10T21:41:31.074Z,3.40
2023-04-10T21:44:28.802Z,3.50
2023-04-10T21:47:26.640Z,3.40
2023-04-10T21:50:26.037Z,4.13
2023-04-10T21:53:23.896Z,3.70
2023-04-10T21:56:21.713Z,3.17
2023-04-10T21:59:19.597Z,3.58
2023-04-10T22:02:17.418Z,3.42
2023-04-10T22:05:15.642Z,3.00
2023-04-10T22:08:14.509Z,3.20
2023-04-10T22:11:12.614Z,3.08
2023-04-10T22:14:16.924Z,3.00
2023-04-10T22:17:15.379Z,3.00
2023-04-10T22:20:13.299Z,3.00
2023-04-10T22:23:11.152Z,3.03
2023-04-10T22:26:08.929Z,2.90
2023-04-10T22:29:06.905Z,2.65
2023-04-10T22:32:04.655Z,2.67
2023-04-10T22:35:02.637Z,2.55
2023-04-10T22:38:00.367Z,2.78
2023-04-10T22:40:59.212Z,2.40
2023-04-10T22:43:57.155Z,2.42
2023-04-10T22:46:55.154Z,2.75
2023-04-10T22:49:53.429Z,2.38
2023-04-10T22:52:51.478Z,2.17
2023-04-10T22:55:49.232Z,2.13
2023-04-10T22:58:47.067Z,2.10
2023-04-10T23:01:45.321Z,2.08
2023-04-10T23:04:43.362Z,2.05
2023-04-10T23:07:41.262Z,2.03
2023-04-10T23:10:39.074Z,1.80
2023-04-10T23:13:37.055Z,2.03
2023-04-10T23:16:35.114Z,1.80
2023-04-10T23:19:32.980Z,1.90
2023-04-10T23:22:31.721Z,1.80
2023-04-10T23:25:29.597Z,1.60
2023-04-10T23:28:28.206Z,1.77
2023-04-10T23:31:26.481Z,1.63
2023-04-10T23:34:24.281Z,2.08
2023-04-10T23:37:22.200Z,1.65
2023-04-10T23:40:21.733Z,1.70
2023-04-10T23:43:19.736Z,1.92
2023-04-10T23:46:17.678Z,1.63
2023-04-10T23:49:15.509Z,1.70
2023-04-10T23:52:13.222Z,1.95
2023-04-10T23:55:11.391Z,1.90
2023-04-10T23:58:09.152Z,1.77
